sensor_id;sensor_type;location;lat;lon;timestamp;pressure;altitude;pressure_sealevel;temperature;humidity
16793;BME280;8513;42.662;23.350;2023-03-20T00:01:23;95233.94;;;8.67;46.58
16793;BME280;8513;42.662;23.350;2023-03-20T00:03:49;95231.97;;;8.59;46.58
16793;BME280;8513;42.662;23.350;2023-03-20T00:06:23;95230.69;;;8.44;47.12
16793;BME280;8513;42.662;23.350;2023-03-20T00:08:52;95230.16;;;8.60;46.54
16793;BME280;8513;42.662;23.350;2023-03-20T00:11:29;95230.59;;;8.55;46.61
16793;BME280;8513;42.662;23.350;2023-03-20T00:13:57;95223.91;;;8.42;46.71
16793;BME280;8513;42.662;23.350;2023-03-20T00:16:28;95233.03;;;8.47;46.97
16793;BME280;8513;42.662;23.350;2023-03-20T00:18:55;95224.88;;;8.41;47.01
16793;BME280;8513;42.662;23.350;2023-03-20T00:21:20;95227.88;;;8.36;47.39
16793;BME280;8513;42.662;23.350;2023-03-20T00:23:46;95216.69;;;8.34;47.12
16793;BME280;8513;42.662;23.350;2023-03-20T00:26:17;95225.00;;;8.39;47.08
16793;BME280;8513;42.662;23.350;2023-03-20T00:33:50;95225.78;;;8.30;47.44
16793;BME280;8513;42.662;23.350;2023-03-20T00:36:16;95221.38;;;8.30;47.44
16793;BME280;8513;42.662;23.350;2023-03-20T00:38:41;95216.75;;;8.44;46.98
16793;BME280;8513;42.662;23.350;2023-03-20T00:41:25;95214.56;;;8.49;47.27
16793;BME280;8513;42.662;23.350;2023-03-20T00:43:54;95215.56;;;8.27;47.08
16793;BME280;8513;42.662;23.350;2023-03-20T00:46:21;95212.38;;;8.23;47.71
16793;BME280;8513;42.662;23.350;2023-03-20T00:48:47;95213.50;;;8.21;47.52
16793;BME280;8513;42.662;23.350;2023-03-20T00:51:13;95215.25;;;8.20;47.48
16793;BME280;8513;42.662;23.350;2023-03-20T00:53:39;95213.41;;;8.01;48.15
16793;BME280;8513;42.662;23.350;2023-03-20T00:56:05;95219.03;;;7.97;48.19
16793;BME280;8513;42.662;23.350;2023-03-20T00:58:31;95212.13;;;7.95;48.26
16793;BME280;8513;42.662;23.350;2023-03-20T01:00:56;95209.78;;;7.92;48.56
16793;BME280;8513;42.662;23.350;2023-03-20T01:03:24;95201.41;;;7.99;48.22
16793;BME280;8513;42.662;23.350;2023-03-20T01:05:50;95202.66;;;8.04;48.00
16793;BME280;8513;42.662;23.350;2023-03-20T01:08:22;95200.34;;;7.80;48.89
16793;BME280;8513;42.662;23.350;2023-03-20T01:10:52;95193.47;;;7.79;48.97
16793;BME280;8513;42.662;23.350;2023-03-20T01:13:23;95202.13;;;7.49;49.81
16793;BME280;8513;42.662;23.350;2023-03-20T01:15:50;95189.47;;;7.33;50.15
16793;BME280;8513;42.662;23.350;2023-03-20T01:18:21;95196.63;;;7.31;50.54
16793;BME280;8513;42.662;23.350;2023-03-20T01:20:47;95185.38;;;7.40;50.29
16793;BME280;8513;42.662;23.350;2023-03-20T01:23:13;95179.94;;;7.53;49.52
16793;BME280;8513;42.662;23.350;2023-03-20T01:25:39;95182.38;;;7.45;49.84
16793;BME280;8513;42.662;23.350;2023-03-20T01:28:20;95191.19;;;7.44;49.79
16793;BME280;8513;42.662;23.350;2023-03-20T01:30:46;95189.03;;;7.28;50.65
16793;BME280;8513;42.662;23.350;2023-03-20T01:33:20;95182.91;;;7.39;50.43
16793;BME280;8513;42.662;23.350;2023-03-20T01:35:47;95193.56;;;7.26;50.59
16793;BME280;8513;42.662;23.350;2023-03-20T01:38:21;95188.56;;;7.23;50.53
16793;BME280;8513;42.662;23.350;2023-03-20T01:40:52;95192.72;;;7.25;50.72
16793;BME280;8513;42.662;23.350;2023-03-20T01:43:21;95193.56;;;7.26;50.82
16793;BME280;8513;42.662;23.350;2023-03-20T01:45:54;95198.59;;;7.39;50.16
16793;BME280;8513;42.662;23.350;2023-03-20T01:48:22;95198.72;;;7.37;49.89
16793;BME280;8513;42.662;23.350;2023-03-20T01:50:49;95200.06;;;7.32;50.15
16793;BME280;8513;42.662;23.350;2023-03-20T01:53:24;95201.34;;;7.37;49.40
16793;BME280;8513;42.662;23.350;2023-03-20T01:55:53;95203.00;;;7.38;49.08
16793;BME280;8513;42.662;23.350;2023-03-20T01:58:32;95202.69;;;7.32;49.79
16793;BME280;8513;42.662;23.350;2023-03-20T02:01:00;95204.22;;;7.34;49.87
16793;BME280;8513;42.662;23.350;2023-03-20T02:03:26;95194.97;;;7.30;49.61
16793;BME280;8513;42.662;23.350;2023-03-20T02:05:52;95198.69;;;7.16;50.21
16793;BME280;8513;42.662;23.350;2023-03-20T02:08:30;95199.88;;;7.23;49.57
16793;BME280;8513;42.662;23.350;2023-03-20T02:10:58;95198.53;;;7.29;49.72
16793;BME280;8513;42.662;23.350;2023-03-20T02:13:29;95189.47;;;7.12;49.94
16793;BME280;8513;42.662;23.350;2023-03-20T02:16:14;95195.19;;;7.27;50.12
16793;BME280;8513;42.662;23.350;2023-03-20T02:18:42;95196.03;;;7.06;50.54
16793;BME280;8513;42.662;23.350;2023-03-20T02:29:57;95192.19;;;6.90;50.92
16793;BME280;8513;42.662;23.350;2023-03-20T02:33:05;95205.53;;;6.75;51.40
16793;BME280;8513;42.662;23.350;2023-03-20T02:36:14;95199.78;;;6.93;51.19
16793;BME280;8513;42.662;23.350;2023-03-20T02:41:39;95201.13;;;6.76;51.32
16793;BME280;8513;42.662;23.350;2023-03-20T02:44:14;95197.31;;;6.80;51.48
16793;BME280;8513;42.662;23.350;2023-03-20T02:55:16;95190.09;;;6.72;51.61
16793;BME280;8513;42.662;23.350;2023-03-20T03:03:16;95176.16;;;6.83;51.28
16793;BME280;8513;42.662;23.350;2023-03-20T03:05:48;95178.06;;;6.81;51.64
16793;BME280;8513;42.662;23.350;2023-03-20T03:08:17;95182.38;;;6.71;51.75
16793;BME280;8513;42.662;23.350;2023-03-20T03:10:48;95186.00;;;6.58;51.86
16793;BME280;8513;42.662;23.350;2023-03-20T03:13:18;95178.19;;;6.36;52.24
16793;BME280;8513;42.662;23.350;2023-03-20T03:15:47;95180.28;;;6.10;53.15
16793;BME280;8513;42.662;23.350;2023-03-20T03:18:20;95180.38;;;6.19;52.72
16793;BME280;8513;42.662;23.350;2023-03-20T03:20:53;95177.06;;;6.17;52.71
16793;BME280;8513;42.662;23.350;2023-03-20T03:23:32;95173.72;;;6.27;52.83
16793;BME280;8513;42.662;23.350;2023-03-20T03:26:01;95178.44;;;6.33;52.46
16793;BME280;8513;42.662;23.350;2023-03-20T03:28:46;95179.69;;;5.95;53.62
16793;BME280;8513;42.662;23.350;2023-03-20T03:31:15;95183.19;;;6.28;52.87
16793;BME280;8513;42.662;23.350;2023-03-20T03:33:45;95181.19;;;6.20;53.09
16793;BME280;8513;42.662;23.350;2023-03-20T03:42:38;95183.91;;;5.85;54.08
16793;BME280;8513;42.662;23.350;2023-03-20T03:45:11;95196.03;;;5.86;54.36
16793;BME280;8513;42.662;23.350;2023-03-20T03:47:51;95185.22;;;5.79;54.33
16793;BME280;8513;42.662;23.350;2023-03-20T03:50:24;95182.84;;;5.87;54.60
16793;BME280;8513;42.662;23.350;2023-03-20T03:52:53;95178.50;;;6.10;53.63
16793;BME280;8513;42.662;23.350;2023-03-20T03:55:28;95182.72;;;6.23;53.06
16793;BME280;8513;42.662;23.350;2023-03-20T03:58:00;95180.59;;;6.28;52.82
16793;BME280;8513;42.662;23.350;2023-03-20T04:00:31;95174.19;;;6.09;53.14
16793;BME280;8513;42.662;23.350;2023-03-20T04:02:58;95176.94;;;6.19;52.83
16793;BME280;8513;42.662;23.350;2023-03-20T04:05:27;95177.03;;;6.29;52.85
16793;BME280;8513;42.662;23.350;2023-03-20T04:07:57;95176.78;;;6.32;52.69
16793;BME280;8513;42.662;23.350;2023-03-20T04:10:23;95166.47;;;6.30;52.46
16793;BME280;8513;42.662;23.350;2023-03-20T04:12:49;95173.97;;;6.24;52.85
16793;BME280;8513;42.662;23.350;2023-03-20T04:15:15;95167.06;;;6.23;52.90
16793;BME280;8513;42.662;23.350;2023-03-20T04:17:41;95161.88;;;6.11;53.25
16793;BME280;8513;42.662;23.350;2023-03-20T04:20:08;95162.69;;;6.23;53.14
16793;BME280;8513;42.662;23.350;2023-03-20T04:22:33;95160.78;;;6.25;52.83
16793;BME280;8513;42.662;23.350;2023-03-20T04:25:04;95159.59;;;6.29;52.25
16793;BME280;8513;42.662;23.350;2023-03-20T04:27:30;95161.63;;;6.26;52.22
16793;BME280;8513;42.662;23.350;2023-03-20T04:29:55;95164.34;;;6.24;52.30
16793;BME280;8513;42.662;23.350;2023-03-20T04:32:21;95156.88;;;6.19;52.34
16793;BME280;8513;42.662;23.350;2023-03-20T04:34:46;95148.34;;;6.17;52.20
16793;BME280;8513;42.662;23.350;2023-03-20T04:37:13;95159.59;;;6.29;51.77
16793;BME280;8513;42.662;23.350;2023-03-20T04:39:39;95162.78;;;6.33;51.93
16793;BME280;8513;42.662;23.350;2023-03-20T04:42:06;95163.38;;;6.36;51.47
16793;BME280;8513;42.662;23.350;2023-03-20T04:44:32;95165.13;;;6.47;51.59
16793;BME280;8513;42.662;23.350;2023-03-20T04:46:58;95165.34;;;6.44;52.03
16793;BME280;8513;42.662;23.350;2023-03-20T04:49:23;95170.38;;;6.25;52.15
16793;BME280;8513;42.662;23.350;2023-03-20T04:51:49;95174.91;;;6.11;52.71
16793;BME280;8513;42.662;23.350;2023-03-20T04:54:14;95187.50;;;5.95;53.45
16793;BME280;8513;42.662;23.350;2023-03-20T04:56:40;95184.66;;;6.09;52.75
16793;BME280;8513;42.662;23.350;2023-03-20T04:59:05;95196.03;;;5.86;53.58
16793;BME280;8513;42.662;23.350;2023-03-20T05:01:31;95199.81;;;5.70;53.85
16793;BME280;8513;42.662;23.350;2023-03-20T05:03:56;95199.56;;;5.62;54.29
16793;BME280;8513;42.662;23.350;2023-03-20T05:06:28;95194.28;;;5.28;54.98
16793;BME280;8513;42.662;23.350;2023-03-20T05:08:56;95196.97;;;5.85;53.44
16793;BME280;8513;42.662;23.350;2023-03-20T05:11:23;95208.16;;;5.98;53.27
16793;BME280;8513;42.662;23.350;2023-03-20T05:13:49;95204.78;;;5.85;53.64
16793;BME280;8513;42.662;23.350;2023-03-20T05:16:15;95203.53;;;6.13;53.11
16793;BME280;8513;42.662;23.350;2023-03-20T05:18:40;95197.97;;;6.17;52.92
16793;BME280;8513;42.662;23.350;2023-03-20T05:21:06;95196.63;;;6.12;53.47
16793;BME280;8513;42.662;23.350;2023-03-20T05:23:32;95201.03;;;6.11;52.89
16793;BME280;8513;42.662;23.350;2023-03-20T05:25:58;95206.69;;;6.28;52.68
16793;BME280;8513;42.662;23.350;2023-03-20T05:28:23;95207.75;;;6.48;52.37
16793;BME280;8513;42.662;23.350;2023-03-20T05:30:49;95201.81;;;6.46;52.50
16793;BME280;8513;42.662;23.350;2023-03-20T05:33:15;95213.38;;;6.21;53.30
16793;BME280;8513;42.662;23.350;2023-03-20T05:35:41;95213.13;;;6.35;53.49
16793;BME280;8513;42.662;23.350;2023-03-20T05:38:06;95211.91;;;6.28;53.16
16793;BME280;8513;42.662;23.350;2023-03-20T05:40:32;95205.03;;;6.38;53.11
16793;BME280;8513;42.662;23.350;2023-03-20T05:42:57;95218.97;;;6.71;52.14
16793;BME280;8513;42.662;23.350;2023-03-20T05:45:22;95210.84;;;6.85;51.81
16793;BME280;8513;42.662;23.350;2023-03-20T05:47:48;95204.56;;;6.88;51.89
16793;BME280;8513;42.662;23.350;2023-03-20T05:50:13;95205.13;;;6.91;51.38
16793;BME280;8513;42.662;23.350;2023-03-20T05:52:39;95210.03;;;7.05;51.10
16793;BME280;8513;42.662;23.350;2023-03-20T05:55:05;95216.94;;;7.06;50.96
16793;BME280;8513;42.662;23.350;2023-03-20T05:57:30;95223.22;;;7.15;51.00
16793;BME280;8513;42.662;23.350;2023-03-20T05:59:56;95214.16;;;7.19;51.01
16793;BME280;8513;42.662;23.350;2023-03-20T06:02:21;95220.22;;;7.20;51.44
16793;BME280;8513;42.662;23.350;2023-03-20T06:04:47;95222.31;;;7.26;51.16
16793;BME280;8513;42.662;23.350;2023-03-20T06:07:12;95207.78;;;7.33;50.41
16793;BME280;8513;42.662;23.350;2023-03-20T06:09:37;95209.63;;;7.42;50.21
16793;BME280;8513;42.662;23.350;2023-03-20T06:12:03;95215.84;;;7.41;50.52
16793;BME280;8513;42.662;23.350;2023-03-20T06:14:28;95211.22;;;7.55;50.09
16793;BME280;8513;42.662;23.350;2023-03-20T06:16:54;95218.88;;;7.25;50.59
16793;BME280;8513;42.662;23.350;2023-03-20T06:19:21;95213.13;;;7.11;51.03
16793;BME280;8513;42.662;23.350;2023-03-20T06:21:48;95215.22;;;6.96;51.59
16793;BME280;8513;42.662;23.350;2023-03-20T06:24:14;95214.88;;;6.89;51.70
16793;BME280;8513;42.662;23.350;2023-03-20T06:26:40;95218.53;;;7.19;51.10
16793;BME280;8513;42.662;23.350;2023-03-20T06:29:05;95215.13;;;7.39;51.00
16793;BME280;8513;42.662;23.350;2023-03-20T06:31:31;95221.75;;;7.64;50.14
16793;BME280;8513;42.662;23.350;2023-03-20T06:33:56;95223.22;;;7.78;49.74
16793;BME280;8513;42.662;23.350;2023-03-20T06:36:22;95210.44;;;7.85;49.17
16793;BME280;8513;42.662;23.350;2023-03-20T06:38:47;95221.41;;;8.09;48.61
16793;BME280;8513;42.662;23.350;2023-03-20T06:41:13;95224.03;;;8.00;48.87
16793;BME280;8513;42.662;23.350;2023-03-20T06:43:38;95223.13;;;8.20;48.49
16793;BME280;8513;42.662;23.350;2023-03-20T06:46:04;95214.22;;;8.32;48.06
16793;BME280;8513;42.662;23.350;2023-03-20T06:48:31;95211.66;;;8.42;47.69
16793;BME280;8513;42.662;23.350;2023-03-20T06:50:56;95222.03;;;8.53;47.49
16793;BME280;8513;42.662;23.350;2023-03-20T06:53:22;95217.88;;;8.60;47.55
16793;BME280;8513;42.662;23.350;2023-03-20T06:55:49;95217.50;;;8.65;47.94
16793;BME280;8513;42.662;23.350;2023-03-20T06:58:15;95211.47;;;8.74;47.28
16793;BME280;8513;42.662;23.350;2023-03-20T07:00:40;95213.53;;;8.80;46.92
16793;BME280;8513;42.662;23.350;2023-03-20T07:03:06;95205.53;;;8.92;46.81
16793;BME280;8513;42.662;23.350;2023-03-20T07:05:31;95199.19;;;8.94;46.39
16793;BME280;8513;42.662;23.350;2023-03-20T07:07:58;95201.25;;;8.91;46.62
16793;BME280;8513;42.662;23.350;2023-03-20T07:10:24;95208.28;;;9.00;46.60
16793;BME280;8513;42.662;23.350;2023-03-20T07:12:49;95188.41;;;9.07;46.55
16793;BME280;8513;42.662;23.350;2023-03-20T07:15:18;95205.13;;;9.25;46.20
16793;BME280;8513;42.662;23.350;2023-03-20T07:17:44;95206.63;;;9.38;46.25
16793;BME280;8513;42.662;23.350;2023-03-20T07:20:10;95204.56;;;9.41;45.91
16793;BME280;8513;42.662;23.350;2023-03-20T07:22:35;95204.53;;;9.51;45.79
16793;BME280;8513;42.662;23.350;2023-03-20T07:25:01;95198.63;;;9.49;45.95
16793;BME280;8513;42.662;23.350;2023-03-20T07:27:27;95196.38;;;9.54;45.75
16793;BME280;8513;42.662;23.350;2023-03-20T07:29:52;95193.03;;;9.62;45.76
16793;BME280;8513;42.662;23.350;2023-03-20T07:32:18;95205.47;;;9.69;45.54
16793;BME280;8513;42.662;23.350;2023-03-20T07:34:43;95196.88;;;9.77;45.33
16793;BME280;8513;42.662;23.350;2023-03-20T07:37:09;95199.38;;;9.79;45.16
16793;BME280;8513;42.662;23.350;2023-03-20T07:39:35;95196.88;;;9.87;45.18
16793;BME280;8513;42.662;23.350;2023-03-20T07:42:01;95198.09;;;9.92;45.33
16793;BME280;8513;42.662;23.350;2023-03-20T07:44:26;95194.06;;;9.98;45.00
16793;BME280;8513;42.662;23.350;2023-03-20T07:46:52;95204.81;;;10.05;44.37
16793;BME280;8513;42.662;23.350;2023-03-20T07:49:17;95195.72;;;9.99;44.85
16793;BME280;8513;42.662;23.350;2023-03-20T07:51:44;95202.75;;;10.08;45.14
16793;BME280;8513;42.662;23.350;2023-03-20T07:54:10;95197.28;;;10.20;44.83
16793;BME280;8513;42.662;23.350;2023-03-20T07:56:35;95190.41;;;10.19;45.09
16793;BME280;8513;42.662;23.350;2023-03-20T07:59:01;95202.78;;;10.26;44.99
16793;BME280;8513;42.662;23.350;2023-03-20T08:01:27;95203.78;;;10.35;44.66
16793;BME280;8513;42.662;23.350;2023-03-20T08:03:52;95201.00;;;10.82;43.18
16793;BME280;8513;42.662;23.350;2023-03-20T08:06:18;95196.03;;;10.33;44.39
16793;BME280;8513;42.662;23.350;2023-03-20T08:08:43;95190.63;;;10.35;44.50
16793;BME280;8513;42.662;23.350;2023-03-20T08:11:09;95190.84;;;10.42;44.43
16793;BME280;8513;42.662;23.350;2023-03-20T08:13:36;95192.75;;;10.49;44.31
16793;BME280;8513;42.662;23.350;2023-03-20T08:16:02;95194.53;;;10.76;43.89
16793;BME280;8513;42.662;23.350;2023-03-20T08:18:27;95189.91;;;10.60;44.34
16793;BME280;8513;42.662;23.350;2023-03-20T08:20:53;95192.63;;;10.69;44.47
16793;BME280;8513;42.662;23.350;2023-03-20T08:23:18;95193.41;;;10.79;43.95
16793;BME280;8513;42.662;23.350;2023-03-20T08:25:51;95199.56;;;10.88;43.51
16793;BME280;8513;42.662;23.350;2023-03-20T08:28:17;95193.38;;;11.07;43.18
16793;BME280;8513;42.662;23.350;2023-03-20T08:30:42;95196.84;;;10.79;43.93
16793;BME280;8513;42.662;23.350;2023-03-20T08:33:08;95197.53;;;10.81;43.69
16793;BME280;8513;42.662;23.350;2023-03-20T08:35:33;95198.16;;;10.93;43.86
16793;BME280;8513;42.662;23.350;2023-03-20T08:37:59;95195.63;;;11.01;43.19
16793;BME280;8513;42.662;23.350;2023-03-20T08:40:25;95197.94;;;10.87;43.62
16793;BME280;8513;42.662;23.350;2023-03-20T08:42:50;95201.84;;;11.00;43.73
16793;BME280;8513;42.662;23.350;2023-03-20T08:45:16;95192.00;;;11.02;43.53
16793;BME280;8513;42.662;23.350;2023-03-20T08:47:42;95183.72;;;11.15;43.29
16793;BME280;8513;42.662;23.350;2023-03-20T08:50:08;95185.06;;;11.19;43.30
16793;BME280;8513;42.662;23.350;2023-03-20T08:52:33;95185.00;;;11.29;43.49
16793;BME280;8513;42.662;23.350;2023-03-20T08:54:59;95187.69;;;11.37;43.03
16793;BME280;8513;42.662;23.350;2023-03-20T08:57:24;95186.44;;;11.41;42.56
16793;BME280;8513;42.662;23.350;2023-03-20T08:59:50;95188.28;;;11.49;42.84
16793;BME280;8513;42.662;23.350;2023-03-20T09:02:15;95182.91;;;11.59;42.12
16793;BME280;8513;42.662;23.350;2023-03-20T09:04:41;95185.50;;;11.51;42.49
16793;BME280;8513;42.662;23.350;2023-03-20T09:07:06;95184.09;;;11.64;42.03
16793;BME280;8513;42.662;23.350;2023-03-20T09:09:32;95182.13;;;11.84;41.34
16793;BME280;8513;42.662;23.350;2023-03-20T09:11:58;95182.22;;;11.75;41.75
16793;BME280;8513;42.662;23.350;2023-03-20T09:14:25;95173.59;;;11.90;41.57
16793;BME280;8513;42.662;23.350;2023-03-20T09:16:51;95169.56;;;12.04;41.46
16793;BME280;8513;42.662;23.350;2023-03-20T09:19:17;95170.75;;;12.10;40.64
16793;BME280;8513;42.662;23.350;2023-03-20T09:21:43;95172.06;;;12.06;41.08
16793;BME280;8513;42.662;23.350;2023-03-20T09:24:09;95161.22;;;12.17;40.76
16793;BME280;8513;42.662;23.350;2023-03-20T09:26:36;95153.84;;;12.29;40.76
16793;BME280;8513;42.662;23.350;2023-03-20T09:29:01;95160.44;;;12.67;39.89
16793;BME280;8513;42.662;23.350;2023-03-20T09:31:27;95159.44;;;12.68;39.83
16793;BME280;8513;42.662;23.350;2023-03-20T09:33:52;95166.44;;;13.18;38.59
16793;BME280;8513;42.662;23.350;2023-03-20T09:36:18;95155.38;;;13.23;37.91
16793;BME280;8513;42.662;23.350;2023-03-20T09:38:43;95148.06;;;12.76;39.19
16793;BME280;8513;42.662;23.350;2023-03-20T09:41:35;95148.75;;;12.86;39.30
16793;BME280;8513;42.662;23.350;2023-03-20T09:50:04;95132.81;;;13.29;38.45
16793;BME280;8513;42.662;23.350;2023-03-20T09:53:09;95120.22;;;13.47;37.70
16793;BME280;8513;42.662;23.350;2023-03-20T09:55:38;95115.09;;;13.70;37.99
16793;BME280;8513;42.662;23.350;2023-03-20T09:58:31;95096.72;;;13.85;37.62
16793;BME280;8513;42.662;23.350;2023-03-20T10:00:59;95097.66;;;14.00;37.33
16793;BME280;8513;42.662;23.350;2023-03-20T10:03:49;95102.88;;;14.25;36.28
16793;BME280;8513;42.662;23.350;2023-03-20T10:06:15;95092.94;;;14.19;36.87
16793;BME280;8513;42.662;23.350;2023-03-20T10:08:43;95082.88;;;14.22;36.61
16793;BME280;8513;42.662;23.350;2023-03-20T10:13:50;95075.03;;;13.98;37.28
16793;BME280;8513;42.662;23.350;2023-03-20T10:19:24;95081.34;;;14.28;36.75
16793;BME280;8513;42.662;23.350;2023-03-20T10:22:06;95067.06;;;14.37;36.55
16793;BME280;8513;42.662;23.350;2023-03-20T10:24:41;95063.06;;;14.49;35.54
16793;BME280;8513;42.662;23.350;2023-03-20T10:27:45;95068.84;;;14.45;35.95
16793;BME280;8513;42.662;23.350;2023-03-20T10:35:49;95055.09;;;14.81;35.08
16793;BME280;8513;42.662;23.350;2023-03-20T10:40:55;95050.38;;;15.29;34.43
16793;BME280;8513;42.662;23.350;2023-03-20T10:43:33;95044.09;;;15.30;35.11
16793;BME280;8513;42.662;23.350;2023-03-20T10:48:41;95037.41;;;15.72;33.00
16793;BME280;8513;42.662;23.350;2023-03-20T10:51:15;95036.09;;;15.68;33.39
16793;BME280;8513;42.662;23.350;2023-03-20T10:56:39;95027.63;;;15.72;33.71
16793;BME280;8513;42.662;23.350;2023-03-20T10:59:11;95018.09;;;15.93;33.31
16793;BME280;8513;42.662;23.350;2023-03-20T11:01:42;95014.34;;;16.60;31.79
16793;BME280;8513;42.662;23.350;2023-03-20T11:04:07;95010.22;;;16.36;32.10
16793;BME280;8513;42.662;23.350;2023-03-20T11:06:40;95018.34;;;16.13;32.17
16793;BME280;8513;42.662;23.350;2023-03-20T11:09:11;95007.41;;;16.59;31.74
16793;BME280;8513;42.662;23.350;2023-03-20T11:11:45;95002.66;;;16.75;31.58
16793;BME280;8513;42.662;23.350;2023-03-20T11:14:22;95000.41;;;16.72;32.24
16793;BME280;8513;42.662;23.350;2023-03-20T11:16:50;94999.75;;;16.70;30.90
16793;BME280;8513;42.662;23.350;2023-03-20T11:19:18;94978.97;;;17.24;30.41
16793;BME280;8513;42.662;23.350;2023-03-20T11:21:55;94995.88;;;17.37;30.47
16793;BME280;8513;42.662;23.350;2023-03-20T11:26:50;94974.63;;;17.44;30.10
16793;BME280;8513;42.662;23.350;2023-03-20T11:29:29;94975.06;;;17.82;28.94
16793;BME280;8513;42.662;23.350;2023-03-20T11:32:06;94963.03;;;17.52;29.09
16793;BME280;8513;42.662;23.350;2023-03-20T11:34:35;94971.66;;;17.60;29.27
16793;BME280;8513;42.662;23.350;2023-03-20T11:37:06;94957.66;;;17.80;28.89
16793;BME280;8513;42.662;23.350;2023-03-20T11:39:52;94965.09;;;17.91;28.80
16793;BME280;8513;42.662;23.350;2023-03-20T11:42:22;94956.63;;;18.36;27.54
16793;BME280;8513;42.662;23.350;2023-03-20T11:44:59;94941.94;;;18.66;27.13
16793;BME280;8513;42.662;23.350;2023-03-20T11:47:27;94940.06;;;18.40;27.31
16793;BME280;8513;42.662;23.350;2023-03-20T11:49:56;94943.38;;;18.56;27.06
16793;BME280;8513;42.662;23.350;2023-03-20T11:52:29;94927.19;;;18.64;27.07
16793;BME280;8513;42.662;23.350;2023-03-20T11:54:58;94921.47;;;19.20;26.66
16793;BME280;8513;42.662;23.350;2023-03-20T11:57:44;94920.63;;;19.13;25.60
16793;BME280;8513;42.662;23.350;2023-03-20T12:02:35;94920.03;;;19.17;25.10
16793;BME280;8513;42.662;23.350;2023-03-20T12:05:17;94913.25;;;19.28;24.47
16793;BME280;8513;42.662;23.350;2023-03-20T12:07:45;94905.06;;;19.23;24.75
16793;BME280;8513;42.662;23.350;2023-03-20T12:10:11;94904.22;;;19.36;24.42
16793;BME280;8513;42.662;23.350;2023-03-20T12:12:46;94908.03;;;19.60;24.06
16793;BME280;8513;42.662;23.350;2023-03-20T12:15:34;94897.34;;;19.73;23.74
16793;BME280;8513;42.662;23.350;2023-03-20T12:23:47;94891.47;;;20.03;23.37
16793;BME280;8513;42.662;23.350;2023-03-20T12:26:19;94895.50;;;20.12;22.31
16793;BME280;8513;42.662;23.350;2023-03-20T12:31:34;94884.41;;;20.47;22.81
16793;BME280;8513;42.662;23.350;2023-03-20T12:34:06;94887.53;;;20.76;22.30
16793;BME280;8513;42.662;23.350;2023-03-20T12:36:42;94876.59;;;21.02;21.92
16793;BME280;8513;42.662;23.350;2023-03-20T12:39:14;94869.56;;;21.08;21.70
16793;BME280;8513;42.662;23.350;2023-03-20T12:46:54;94869.53;;;21.51;20.09
16793;BME280;8513;42.662;23.350;2023-03-20T12:49:33;94860.03;;;21.55;20.16
16793;BME280;8513;42.662;23.350;2023-03-20T13:11:34;94841.06;;;26.46;14.49
16793;BME280;8513;42.662;23.350;2023-03-20T13:25:31;94815.50;;;30.55;10.91
16793;BME280;8513;42.662;23.350;2023-03-20T13:28:03;94817.63;;;31.27;9.99
16793;BME280;8513;42.662;23.350;2023-03-20T13:30:41;94820.53;;;31.89;10.04
16793;BME280;8513;42.662;23.350;2023-03-20T13:39:15;94795.63;;;32.01;9.18
16793;BME280;8513;42.662;23.350;2023-03-20T13:41:43;94799.63;;;32.08;9.00
16793;BME280;8513;42.662;23.350;2023-03-20T13:44:10;94797.25;;;31.78;9.56
16793;BME280;8513;42.662;23.350;2023-03-20T13:46:44;94794.31;;;31.74;9.80
16793;BME280;8513;42.662;23.350;2023-03-20T13:49:42;94788.63;;;30.93;10.25
16793;BME280;8513;42.662;23.350;2023-03-20T13:52:18;94789.81;;;30.43;10.00
16793;BME280;8513;42.662;23.350;2023-03-20T14:00:13;94781.03;;;27.98;12.21
16793;BME280;8513;42.662;23.350;2023-03-20T14:05:29;94784.09;;;28.32;11.57
16793;BME280;8513;42.662;23.350;2023-03-20T14:08:23;94775.22;;;27.64;12.71
16793;BME280;8513;42.662;23.350;2023-03-20T14:13:38;94764.19;;;27.70;12.17
16793;BME280;8513;42.662;23.350;2023-03-20T14:16:09;94761.16;;;28.55;11.83
16793;BME280;8513;42.662;23.350;2023-03-20T14:18:39;94757.69;;;29.56;11.39
16793;BME280;8513;42.662;23.350;2023-03-20T14:21:13;94751.41;;;29.81;11.19
16793;BME280;8513;42.662;23.350;2023-03-20T14:23:44;94757.88;;;29.80;10.95
16793;BME280;8513;42.662;23.350;2023-03-20T14:26:29;94761.25;;;30.11;10.69
16793;BME280;8513;42.662;23.350;2023-03-20T14:29:29;94753.38;;;30.09;10.54
16793;BME280;8513;42.662;23.350;2023-03-20T14:31:48;94747.84;;;29.80;10.87
16793;BME280;8513;42.662;23.350;2023-03-20T14:34:22;94749.69;;;29.95;10.30
16793;BME280;8513;42.662;23.350;2023-03-20T14:36:59;94743.56;;;30.19;10.62
16793;BME280;8513;42.662;23.350;2023-03-20T14:39:53;94740.56;;;30.60;10.07
16793;BME280;8513;42.662;23.350;2023-03-20T14:53:26;94733.75;;;30.96;9.69
16793;BME280;8513;42.662;23.350;2023-03-20T14:56:04;94738.47;;;30.51;9.78
16793;BME280;8513;42.662;23.350;2023-03-20T15:01:04;94732.38;;;29.16;10.91
16793;BME280;8513;42.662;23.350;2023-03-20T15:03:30;94737.06;;;28.49;11.33
16793;BME280;8513;42.662;23.350;2023-03-20T15:05:58;94733.38;;;27.71;11.50
16793;BME280;8513;42.662;23.350;2023-03-20T15:08:28;94732.28;;;27.04;12.60
16793;BME280;8513;42.662;23.350;2023-03-20T15:10:57;94732.22;;;26.20;12.67
16793;BME280;8513;42.662;23.350;2023-03-20T15:13:24;94738.31;;;26.10;13.62
16793;BME280;8513;42.662;23.350;2023-03-20T15:15:58;94735.84;;;25.81;13.18
16793;BME280;8513;42.662;23.350;2023-03-20T15:18:26;94741.22;;;25.32;14.19
16793;BME280;8513;42.662;23.350;2023-03-20T15:20:55;94734.66;;;25.06;14.84
16793;BME280;8513;42.662;23.350;2023-03-20T15:23:21;94733.94;;;25.11;14.43
16793;BME280;8513;42.662;23.350;2023-03-20T15:25:48;94726.34;;;24.69;14.80
16793;BME280;8513;42.662;23.350;2023-03-20T15:28:23;94733.78;;;24.28;14.84
16793;BME280;8513;42.662;23.350;2023-03-20T15:30:51;94733.31;;;23.85;15.28
16793;BME280;8513;42.662;23.350;2023-03-20T15:33:33;94724.19;;;23.86;16.00
16793;BME280;8513;42.662;23.350;2023-03-20T15:36:08;94728.28;;;23.89;16.46
16793;BME280;8513;42.662;23.350;2023-03-20T15:38:34;94728.13;;;23.95;16.07
16793;BME280;8513;42.662;23.350;2023-03-20T15:41:07;94732.28;;;23.46;15.85
16793;BME280;8513;42.662;23.350;2023-03-20T15:43:48;94722.25;;;23.01;16.22